Time;durP1;ratioP1;P1;durP2;ratioP2;P2;SDS_P1;SDS_P2;PMS_P1;PMS_P2;Temp;Humidity;BMP_temperature;BMP_pressure;BME280_temperature;BME280_humidity;BME280_pressure;Samples;Min_cycle;Max_cycle;Signal;HPM_P1;HPM_P2
2022/12/05 00:01:46;;;;;;;66.00;24.33;;;;;;;2.15;97.03;101701.84;5048833;28;20028;-64
2022/12/05 00:04:13;;;;;;;66.25;25.02;;;;;;;2.15;97.15;101707.88;5044289;28;20057;-64
2022/12/05 00:06:40;;;;;;;67.75;24.80;;;;;;;2.16;97.26;101706.19;5047098;28;20403;-65
2022/12/05 00:09:08;;;;;;;70.40;25.40;;;;;;;2.17;96.61;101706.34;5050244;28;20044;-64
2022/12/05 00:11:35;;;;;;;64.07;25.85;;;;;;;2.17;96.84;101714.06;5059975;28;20131;-64
2022/12/05 00:14:01;;;;;;;66.75;24.58;;;;;;;2.17;96.49;101708.00;5047371;28;20029;-64
2022/12/05 00:16:30;;;;;;;64.55;25.77;;;;;;;2.17;97.30;101714.06;5032190;28;20797;-64
2022/12/05 00:19:00;;;;;;;68.97;25.67;;;;;;;2.15;97.34;101715.59;5054588;28;20090;-64
2022/12/05 00:21:28;;;;;;;71.38;25.17;;;;;;;2.17;96.97;101710.56;5051777;28;20021;-64
2022/12/05 00:23:55;;;;;;;69.03;25.17;;;;;;;2.17;97.52;101718.28;5057276;28;20135;-64
2022/12/05 00:26:20;;;;;;;69.78;25.88;;;;;;;2.16;97.08;101714.81;5062102;28;20040;-64
2022/12/05 00:28:46;;;;;;;71.25;26.73;;;;;;;2.16;97.42;101711.34;5058163;28;20100;-64
2022/12/05 00:31:18;;;;;;;72.32;26.48;;;;;;;2.17;97.59;101708.91;5061238;28;20021;-64
2022/12/05 00:33:44;;;;;;;68.65;25.27;;;;;;;2.19;97.40;101706.44;5060719;28;20028;-64
2022/12/05 00:36:12;;;;;;;74.97;26.05;;;;;;;2.20;97.50;101697.91;5064592;28;20028;-64
2022/12/05 00:38:38;;;;;;;74.15;26.08;;;;;;;2.19;96.85;101698.72;5056847;28;20198;-61
2022/12/05 00:41:05;;;;;;;71.28;26.92;;;;;;;2.20;97.33;101697.91;5056155;28;20043;-60
2022/12/05 00:43:30;;;;;;;69.47;26.17;;;;;;;2.19;97.49;101685.88;5051744;28;20041;-61
2022/12/05 00:46:00;;;;;;;69.03;26.40;;;;;;;2.19;97.24;101696.16;5057077;28;20171;-60
2022/12/05 00:48:25;;;;;;;78.63;28.08;;;;;;;2.19;97.66;101698.72;5051072;28;20123;-61
2022/12/05 00:51:08;;;;;;;74.72;27.45;;;;;;;2.20;97.23;101698.84;5059396;28;20024;-61
2022/12/05 00:53:34;;;;;;;69.60;25.50;;;;;;;2.23;97.54;101696.47;5044997;28;20048;-61
2022/12/05 00:56:03;;;;;;;76.38;27.30;;;;;;;2.24;97.21;101695.66;5062874;28;20299;-61
2022/12/05 00:58:30;;;;;;;74.40;26.88;;;;;;;2.27;96.86;101702.72;5060673;28;20045;-61
2022/12/05 01:00:56;;;;;;;76.05;26.33;;;;;;;2.29;97.51;101695.09;5052939;28;20032;-61
2022/12/05 01:03:21;;;;;;;71.53;25.23;;;;;;;2.30;97.35;101702.06;5050650;28;20020;-61
2022/12/05 01:05:46;;;;;;;71.65;26.55;;;;;;;2.31;97.52;101693.56;5062078;28;20326;-61
2022/12/05 01:08:11;;;;;;;75.50;26.52;;;;;;;2.31;97.05;101702.16;5058374;28;20048;-60
2022/12/05 01:10:37;;;;;;;76.50;26.45;;;;;;;2.31;97.14;101709.88;5057798;28;20052;-61
2022/12/05 01:13:02;;;;;;;75.75;26.13;;;;;;;2.33;97.54;101704.84;5044828;28;20026;-61
2022/12/05 01:15:27;;;;;;;75.00;26.25;;;;;;;2.34;96.98;101709.19;5049194;28;20056;-60
2022/12/05 01:17:52;;;;;;;74.53;27.13;;;;;;;2.35;97.38;101711.88;5058163;28;20021;-60
2022/12/05 01:20:18;;;;;;;75.53;25.85;;;;;;;2.34;97.56;101714.34;5053340;28;20043;-60
2022/12/05 01:22:43;;;;;;;70.95;26.65;;;;;;;2.37;97.10;101711.97;5049422;28;20264;-61
2022/12/05 01:25:08;;;;;;;68.43;25.65;;;;;;;2.36;96.98;101718.81;5052959;28;20039;-61
2022/12/05 01:27:34;;;;;;;74.95;27.70;;;;;;;2.37;96.88;101714.56;5052663;28;20279;-61
2022/12/05 01:29:59;;;;;;;72.57;26.65;;;;;;;2.38;97.19;101717.22;5046488;28;20097;-61
2022/12/05 01:32:24;;;;;;;72.65;28.20;;;;;;;2.39;97.24;101720.69;5049075;28;20071;-61
2022/12/05 01:34:50;;;;;;;73.10;27.15;;;;;;;2.39;97.01;101712.97;5048054;28;20028;-61
2022/12/05 01:37:15;;;;;;;70.25;26.35;;;;;;;2.40;97.24;101719.91;5050668;28;20070;-61
2022/12/05 01:39:40;;;;;;;72.53;26.65;;;;;;;2.40;96.98;101719.91;5049478;28;20078;-61
2022/12/05 01:42:06;;;;;;;73.60;26.27;;;;;;;2.41;97.40;101722.59;5043397;28;20548;-61
2022/12/05 01:44:31;;;;;;;72.68;27.00;;;;;;;2.41;97.51;101724.28;5045046;28;20811;-61
2022/12/05 01:46:56;;;;;;;69.43;25.35;;;;;;;2.42;97.40;101723.50;5043915;28;20037;-64
2022/12/05 01:49:29;;;;;;;71.97;26.63;;;;;;;2.41;96.97;101732.88;5041896;28;20052;-64
2022/12/05 01:51:58;;;;;;;76.75;26.75;;;;;;;2.41;97.52;101734.56;5044646;28;20406;-64
2022/12/05 01:54:24;;;;;;;74.18;27.02;;;;;;;2.40;97.52;101735.34;5047046;28;20244;-64
2022/12/05 01:56:56;;;;;;;68.88;25.77;;;;;;;2.38;97.60;101742.06;5066630;28;20036;-65
2022/12/05 01:59:24;;;;;;;70.72;25.48;;;;;;;2.39;97.43;101744.75;5061028;28;20045;-64
2022/12/05 02:01:49;;;;;;;70.18;25.63;;;;;;;2.40;97.77;101737.91;5045604;28;20052;-64
2022/12/05 02:04:15;;;;;;;69.00;25.45;;;;;;;2.41;97.43;101739.72;5045161;28;20025;-64
2022/12/05 02:06:41;;;;;;;68.65;26.45;;;;;;;2.42;97.28;101738.94;5044530;28;20033;-64
2022/12/05 02:09:06;;;;;;;72.38;28.35;;;;;;;2.41;97.02;101743.16;5041602;28;20041;-64
2022/12/05 02:11:34;;;;;;;64.90;26.05;;;;;;;2.44;97.76;101739.94;5053317;28;20040;-64
2022/12/05 02:14:17;;;;;;;71.55;26.15;;;;;;;2.45;97.61;101741.72;5051140;28;20083;-64
2022/12/05 02:17:01;;;;;;;75.50;26.90;;;;;;;2.46;97.31;101742.59;5058104;28;20078;-61
2022/12/05 02:19:47;;;;;;;73.20;25.40;;;;;;;2.48;97.42;101744.50;5049830;28;20761;-61
2022/12/05 02:22:31;;;;;;;71.72;25.92;;;;;;;2.50;97.76;101739.47;5053494;28;20028;-61
2022/12/05 02:25:33;;;;;;;72.25;26.73;;;;;;;2.48;97.13;101739.38;5048861;28;20072;-61
2022/12/05 02:28:22;;;;;;;68.55;26.58;;;;;;;2.50;97.70;101737.78;5049305;28;20301;-60
2022/12/05 02:31:02;;;;;;;67.43;25.58;;;;;;;2.51;97.39;101734.44;5055771;28;20060;-61
2022/12/05 02:33:49;;;;;;;70.75;24.58;;;;;;;2.53;97.50;101742.25;5057725;28;20028;-61
2022/12/05 02:36:22;;;;;;;70.35;27.23;;;;;;;2.53;97.58;101734.53;5051842;28;20263;-63
2022/12/05 02:38:57;;;;;;;74.28;26.50;;;;;;;2.54;97.86;101734.66;5054638;28;20032;-61
2022/12/05 02:41:51;;;;;;;73.90;26.38;;;;;;;2.56;97.62;101734.75;5053294;28;20052;-61
2022/12/05 02:44:49;;;;;;;71.32;26.85;;;;;;;2.55;97.56;101726.16;5050418;28;20120;-61
2022/12/05 02:47:20;;;;;;;71.97;26.75;;;;;;;2.55;97.26;101732.94;5034072;28;20100;-64
2022/12/05 02:49:46;;;;;;;71.38;25.90;;;;;;;2.55;97.79;101735.53;5045900;28;20264;-64
2022/12/05 02:52:15;;;;;;;72.28;26.50;;;;;;;2.56;97.69;101729.59;5049332;28;20104;-64
2022/12/05 02:54:43;;;;;;;73.90;25.80;;;;;;;2.56;97.76;101734.75;5046899;28;20104;-65
2022/12/05 02:57:11;;;;;;;67.68;25.95;;;;;;;2.56;97.90;101732.19;5048263;28;20159;-65
2022/12/05 02:59:36;;;;;;;75.00;27.08;;;;;;;2.57;97.85;101733.97;5052728;28;20221;-65
2022/12/05 03:02:01;;;;;;;71.55;26.02;;;;;;;2.58;97.95;101734.06;5058981;28;20107;-64
2022/12/05 03:04:28;;;;;;;70.30;27.08;;;;;;;2.61;97.94;101742.00;5045343;28;20140;-64
2022/12/05 03:06:58;;;;;;;71.57;26.00;;;;;;;2.63;97.56;101738.66;5051902;28;20025;-64
2022/12/05 03:09:29;;;;;;;71.32;26.10;;;;;;;2.63;97.52;101741.22;5049928;28;20040;-64
2022/12/05 03:12:11;;;;;;;78.80;27.25;;;;;;;2.64;98.07;101745.59;5049350;28;20176;-64
2022/12/05 03:14:43;;;;;;;71.95;26.23;;;;;;;2.63;98.10;101736.97;5049149;28;20029;-64
2022/12/05 03:17:23;;;;;;;79.03;26.75;;;;;;;2.62;98.09;101737.75;5053701;28;20045;-65
2022/12/05 03:19:57;;;;;;;69.35;25.90;;;;;;;2.60;98.14;101737.63;5052390;28;20033;-65
2022/12/05 03:22:31;;;;;;;70.70;26.48;;;;;;;2.58;97.99;101739.22;5051366;28;20013;-65
2022/12/05 03:24:58;;;;;;;73.25;25.58;;;;;;;2.58;98.32;101738.34;5054784;28;20318;-65
2022/12/05 03:27:52;;;;;;;76.65;26.73;;;;;;;2.59;98.47;101735.88;5059926;28;20017;-64
2022/12/05 03:30:21;;;;;;;76.40;26.75;;;;;;;2.57;98.76;101732.28;5056625;28;20017;-65
2022/12/05 03:33:09;;;;;;;70.35;27.40;;;;;;;2.59;98.94;101738.44;5060844;28;20048;-65
2022/12/05 03:35:48;;;;;;;70.88;25.48;;;;;;;2.57;99.04;101734.84;5054629;28;20033;-65
2022/12/05 03:38:25;;;;;;;73.13;27.45;;;;;;;2.58;98.76;101728.94;5044846;28;20029;-65
2022/12/05 03:41:25;;;;;;;73.68;27.00;;;;;;;2.60;99.09;101732.50;5046249;28;20048;-64
2022/12/05 03:44:02;;;;;;;73.63;26.63;;;;;;;2.60;99.09;101732.50;5046442;28;20044;-65
2022/12/05 03:46:42;;;;;;;73.60;25.83;;;;;;;2.60;99.03;101729.91;5053851;28;20035;-65
2022/12/05 03:49:20;;;;;;;75.88;27.13;;;;;;;2.58;98.81;101728.06;5058774;28;20055;-65
2022/12/05 03:51:55;;;;;;;81.90;27.38;;;;;;;2.58;99.14;101730.63;5058482;28;20171;-65
2022/12/05 03:54:28;;;;;;;80.03;26.80;;;;;;;2.57;99.37;101728.81;5049743;28;20033;-64
2022/12/05 03:57:26;;;;;;;82.45;28.40;;;;;;;2.58;99.18;101730.63;5051724;28;20037;-65
2022/12/05 04:00:00;;;;;;;79.75;26.13;;;;;;;2.58;99.07;101730.63;5047704;28;20049;-65
2022/12/05 04:02:46;;;;;;;74.57;26.33;;;;;;;2.60;99.09;101729.03;5047866;28;20681;-65
2022/12/05 04:05:24;;;;;;;71.97;26.92;;;;;;;2.63;98.98;101733.50;5045718;28;20071;-65
2022/12/05 04:07:57;;;;;;;70.32;26.48;;;;;;;2.63;98.97;101738.66;5049177;28;20083;-64
2022/12/05 04:10:27;;;;;;;80.53;26.58;;;;;;;2.64;99.40;101740.44;5047729;28;20287;-65
2022/12/05 04:12:58;;;;;;;72.53;25.05;;;;;;;2.67;99.28;101740.66;5058496;28;20291;-65
2022/12/05 04:17:02;;;;;;;81.60;27.50;;;;;;;2.67;99.10;101740.66;5052013;28;20047;-65
2022/12/05 04:18:18;;;;;;;79.35;27.90;;;;;;;2.67;99.15;101745.81;5047703;28;20037;-64
2022/12/05 04:23:30;;;;;;;69.68;25.77;;;;;;;2.66;99.41;101746.59;5054165;28;20079;-65
2022/12/05 04:26:20;;;;;;;79.78;27.30;;;;;;;2.66;99.48;101749.16;5056014;28;20025;-65
2022/12/05 04:28:55;;;;;;;75.15;26.98;;;;;;;2.64;99.50;101750.75;5053163;28;20074;-65
2022/12/05 04:31:24;;;;;;;74.93;25.42;;;;;;;2.63;99.63;101746.38;5048825;28;20182;-65
2022/12/05 04:34:04;;;;;;;72.13;25.60;;;;;;;2.65;99.82;101752.50;5055235;28;20220;-65
2022/12/05 04:36:39;;;;;;;74.18;26.30;;;;;;;2.65;99.62;101744.78;5056260;28;20055;-65
2022/12/05 04:39:10;;;;;;;68.88;26.15;;;;;;;2.65;99.41;101756.00;5055750;28;20315;-65
2022/12/05 04:41:40;;;;;;;80.10;27.17;;;;;;;2.66;99.50;101751.72;5046935;28;20043;-64
2022/12/05 04:44:13;;;;;;;71.47;26.88;;;;;;;2.66;99.55;101754.31;5047563;28;20036;-65
2022/12/05 04:46:42;;;;;;;71.30;26.08;;;;;;;2.67;99.89;101754.41;5059265;28;20043;-65
2022/12/05 04:49:10;;;;;;;75.00;26.35;;;;;;;2.69;99.88;101759.66;5033822;28;20195;-65
2022/12/05 04:51:37;;;;;;;78.43;27.17;;;;;;;2.71;99.96;101765.78;5054047;28;20052;-65
2022/12/05 04:54:21;;;;;;;71.32;26.77;;;;;;;2.71;100.00;101760.66;5056143;28;20017;-65
2022/12/05 04:56:49;;;;;;;70.57;26.05;;;;;;;2.70;99.87;101757.19;5051613;28;20017;-60
2022/12/05 04:59:15;;;;;;;71.07;25.40;;;;;;;2.71;100.00;101752.94;5055636;28;20268;-61
2022/12/05 05:01:46;;;;;;;75.57;26.88;;;;;;;2.71;99.87;101758.06;5058168;28;20290;-61
2022/12/05 05:04:15;;;;;;;69.82;26.63;;;;;;;2.72;100.00;101750.50;5049891;28;20327;-62
2022/12/05 05:06:41;;;;;;;69.32;25.80;;;;;;;2.74;100.00;101750.59;5054941;28;20329;-61
2022/12/05 05:09:07;;;;;;;72.45;26.17;;;;;;;2.75;100.00;101752.38;5061476;28;20028;-61
2022/12/05 05:11:34;;;;;;;74.55;26.10;;;;;;;2.75;100.00;101747.22;5053789;28;20037;-61
2022/12/05 05:14:00;;;;;;;71.07;25.92;;;;;;;2.75;99.81;101754.94;5032848;28;20059;-61
2022/12/05 05:16:31;;;;;;;72.82;27.42;;;;;;;2.75;100.00;101758.44;5055473;28;20864;-61
2022/12/05 05:18:57;;;;;;;72.32;26.75;;;;;;;2.75;100.00;101762.66;5048891;28;20264;-61
2022/12/05 05:21:24;;;;;;;65.57;25.35;;;;;;;2.73;100.00;101762.56;5047170;28;20032;-61
2022/12/05 05:23:49;;;;;;;66.72;24.98;;;;;;;2.73;100.00;101770.28;5047423;28;20108;-61
2022/12/05 05:26:16;;;;;;;72.18;26.45;;;;;;;2.74;100.00;101763.47;5061090;28;20025;-64
2022/12/05 05:28:42;;;;;;;67.75;25.17;;;;;;;2.75;100.00;101767.81;5048923;28;20211;-65
2022/12/05 05:31:07;;;;;;;69.80;26.45;;;;;;;2.76;100.00;101767.91;5058114;28;20024;-65
2022/12/05 05:33:33;;;;;;;70.15;25.08;;;;;;;2.77;100.00;101773.97;5058769;28;20021;-65
2022/12/05 05:36:18;;;;;;;69.22;24.70;;;;;;;2.75;100.00;101767.81;5061207;28;20036;-65
2022/12/05 05:38:47;;;;;;;62.42;23.48;;;;;;;2.74;100.00;101764.34;5060581;28;20195;-64
2022/12/05 05:41:23;;;;;;;66.63;24.88;;;;;;;2.74;100.00;101763.47;5044701;28;20160;-65
2022/12/05 05:43:50;;;;;;;65.47;24.25;;;;;;;2.74;100.00;101763.47;5058541;28;20299;-64
2022/12/05 05:46:17;;;;;;;68.55;25.20;;;;;;;2.73;100.00;101764.25;5049550;28;20268;-65
2022/12/05 05:48:43;;;;;;;67.30;24.30;;;;;;;2.74;100.00;101768.63;5041966;28;20064;-65
2022/12/05 05:51:10;;;;;;;65.85;23.75;;;;;;;2.74;100.00;101766.91;5042276;28;20308;-65
2022/12/05 05:53:36;;;;;;;62.15;23.95;;;;;;;2.75;100.00;101766.16;5045332;28;20035;-64
2022/12/05 05:56:07;;;;;;;67.18;24.77;;;;;;;2.75;100.00;101767.81;5043006;28;20092;-65
2022/12/05 05:58:33;;;;;;;63.72;24.75;;;;;;;2.77;100.00;101768.81;5027113;28;20029;-65
2022/12/05 06:01:12;;;;;;;70.90;26.13;;;;;;;2.78;100.00;101768.00;5043426;28;20045;-65
2022/12/05 06:03:38;;;;;;;67.25;25.23;;;;;;;2.78;100.00;101774.06;5043484;28;20100;-65
2022/12/05 06:06:07;;;;;;;68.63;24.88;;;;;;;2.78;100.00;101773.16;5055559;28;20195;-65
2022/12/05 06:08:34;;;;;;;63.20;23.58;;;;;;;2.79;100.00;101777.53;5054986;28;20157;-65
2022/12/05 06:11:09;;;;;;;64.57;24.35;;;;;;;2.80;100.00;101776.75;5057016;28;20092;-65
2022/12/05 06:13:35;;;;;;;66.85;23.67;;;;;;;2.81;100.00;101778.56;5052333;28;20181;-65
2022/12/05 06:16:01;;;;;;;61.83;23.27;;;;;;;2.82;100.00;101782.00;5062170;28;20086;-64
2022/12/05 06:18:26;;;;;;;64.00;24.10;;;;;;;2.82;100.00;101782.88;5048151;28;20267;-64
2022/12/05 06:20:53;;;;;;;61.45;23.48;;;;;;;2.83;100.00;101782.13;5046616;28;20075;-65
2022/12/05 06:23:18;;;;;;;63.90;23.13;;;;;;;2.84;100.00;101785.56;5046161;28;20029;-65
2022/12/05 06:25:52;;;;;;;64.78;24.45;;;;;;;2.86;100.00;101779.75;5045664;28;20191;-64
2022/12/05 06:28:18;;;;;;;61.35;24.02;;;;;;;2.86;100.00;101781.44;5045425;28;20065;-64
2022/12/05 06:30:44;;;;;;;65.13;23.48;;;;;;;2.87;100.00;101789.25;5046139;28;20041;-64
2022/12/05 06:33:10;;;;;;;64.93;24.02;;;;;;;2.88;100.00;101782.44;5046820;28;20025;-64
2022/12/05 06:35:35;;;;;;;62.92;22.48;;;;;;;2.89;100.00;101784.22;5048814;28;20031;-64
2022/12/05 06:38:01;;;;;;;62.00;22.75;;;;;;;2.90;100.00;101786.03;5044691;28;20033;-65
2022/12/05 06:40:26;;;;;;;60.42;24.05;;;;;;;2.91;100.00;101788.69;5046659;28;20049;-64
2022/12/05 06:42:51;;;;;;;59.53;23.02;;;;;;;2.92;100.00;101790.47;5046749;28;20403;-67
2022/12/05 06:45:17;;;;;;;60.83;23.23;;;;;;;2.94;100.00;101783.75;5044743;28;20051;-67
2022/12/05 06:47:42;;;;;;;54.20;22.13;;;;;;;2.98;100.00;101789.13;5048385;28;20283;-67
2022/12/05 06:50:08;;;;;;;59.25;22.88;;;;;;;2.98;100.00;101790.00;5058757;28;20028;-65
2022/12/05 06:52:33;;;;;;;61.22;22.23;;;;;;;2.98;100.00;101789.13;5050479;28;20088;-64
2022/12/05 06:54:58;;;;;;;62.08;23.80;;;;;;;2.99;100.00;101790.91;5053924;28;20041;-65
2022/12/05 06:57:24;;;;;;;56.00;22.38;;;;;;;3.00;100.00;101793.59;5034993;28;20021;-61
2022/12/05 06:59:49;;;;;;;58.10;23.25;;;;;;;3.00;100.00;101796.16;5057550;28;20033;-61
2022/12/05 07:02:15;;;;;;;56.13;21.50;;;;;;;3.02;100.00;101799.72;5053910;28;20172;-61
2022/12/05 07:04:40;;;;;;;56.72;22.05;;;;;;;3.04;100.00;101799.84;5056605;28;20032;-61
2022/12/05 07:07:05;;;;;;;56.92;21.90;;;;;;;3.05;100.00;101799.94;5051697;28;20036;-61
2022/12/05 07:09:50;;;;;;;56.88;22.85;;;;;;;3.07;100.00;101800.03;5062087;28;20224;-61
2022/12/05 07:12:17;;;;;;;59.85;23.35;;;;;;;3.07;100.00;101810.34;5056811;28;20049;-60
2022/12/05 07:14:42;;;;;;;52.95;21.90;;;;;;;3.07;100.00;101812.91;5049494;28;20028;-61
2022/12/05 07:17:08;;;;;;;56.78;22.17;;;;;;;3.07;100.00;101818.06;5057393;28;20033;-61
2022/12/05 07:19:34;;;;;;;52.72;21.20;;;;;;;3.06;100.00;101808.56;5053411;28;20289;-60
2022/12/05 07:22:00;;;;;;;54.10;21.35;;;;;;;3.07;100.00;101821.56;5052556;28;20029;-60
2022/12/05 07:24:25;;;;;;;53.95;21.70;;;;;;;3.07;100.00;101824.13;5059997;28;20072;-61
2022/12/05 07:26:50;;;;;;;53.83;22.23;;;;;;;3.07;100.00;101826.72;5059658;28;20201;-65
2022/12/05 07:29:16;;;;;;;56.15;22.13;;;;;;;3.10;100.00;101828.56;5055471;28;20060;-65
2022/12/05 07:31:41;;;;;;;50.60;20.33;;;;;;;3.10;100.00;101828.56;5048569;28;20183;-64
2022/12/05 07:34:06;;;;;;;52.80;20.85;;;;;;;3.13;100.00;101836.53;5060295;28;20028;-64
2022/12/05 07:36:32;;;;;;;54.65;21.55;;;;;;;3.12;100.00;101834.75;5045130;28;20033;-65
2022/12/05 07:38:57;;;;;;;55.80;22.08;;;;;;;3.11;100.00;101832.94;5046774;28;20917;-65
2022/12/05 07:41:26;;;;;;;52.97;21.67;;;;;;;3.10;100.00;101826.91;5043215;28;20107;-64
2022/12/05 07:43:52;;;;;;;54.30;21.55;;;;;;;3.11;100.00;101832.94;5043069;28;20032;-64
2022/12/05 07:46:18;;;;;;;54.55;21.38;;;;;;;3.12;100.00;101835.63;5043430;28;20021;-64
2022/12/05 07:48:44;;;;;;;52.38;20.80;;;;;;;3.13;100.00;101836.53;5042608;28;20013;-64
2022/12/05 07:51:10;;;;;;;50.28;19.73;;;;;;;3.17;100.00;101835.94;5043044;28;20105;-64
2022/12/05 07:53:36;;;;;;;50.92;20.48;;;;;;;3.19;100.00;101836.09;5042388;28;20035;-65
2022/12/05 07:56:05;;;;;;;56.25;21.23;;;;;;;3.19;100.00;101836.97;5043128;28;20045;-64
2022/12/05 07:58:32;;;;;;;56.38;22.30;;;;;;;3.18;100.00;101837.75;5051441;28;20060;-64
2022/12/05 08:01:08;;;;;;;54.90;20.30;;;;;;;3.18;100.00;101844.59;5064663;28;20302;-65
2022/12/05 08:03:34;;;;;;;54.53;21.00;;;;;;;3.19;100.00;101848.97;5049873;28;20025;-64
2022/12/05 08:06:04;;;;;;;51.80;20.85;;;;;;;3.18;100.00;101842.88;5065310;28;20101;-64
2022/12/05 08:08:30;;;;;;;52.88;21.20;;;;;;;3.18;100.00;101842.88;5064158;28;20036;-64
2022/12/05 08:10:55;;;;;;;52.50;22.17;;;;;;;3.21;100.00;101848.25;5058301;28;20078;-64
2022/12/05 08:13:20;;;;;;;55.30;21.80;;;;;;;3.22;100.00;101854.31;5051109;28;20171;-64
2022/12/05 08:15:46;;;;;;;57.53;22.13;;;;;;;3.24;100.00;101860.44;5051242;28;20203;-64
2022/12/05 08:18:11;;;;;;;48.90;20.90;;;;;;;3.24;100.00;101857.88;5048953;28;20079;-67
2022/12/05 08:20:36;;;;;;;58.30;21.23;;;;;;;3.24;100.00;101866.47;5048439;28;20302;-64
2022/12/05 08:23:01;;;;;;;55.78;22.27;;;;;;;3.26;100.00;101864.94;5050193;28;20029;-64
2022/12/05 08:25:27;;;;;;;58.38;22.05;;;;;;;3.24;100.00;101870.75;5048661;28;20025;-64
2022/12/05 08:27:52;;;;;;;53.60;21.15;;;;;;;3.23;100.00;101869.88;5055625;28;20052;-60
2022/12/05 08:30:17;;;;;;;58.60;21.05;;;;;;;3.23;100.00;101868.97;5057710;28;20280;-61
2022/12/05 08:32:43;;;;;;;57.47;22.30;;;;;;;3.23;100.00;101874.09;5058736;28;20127;-61
2022/12/05 08:35:09;;;;;;;56.25;21.50;;;;;;;3.21;100.00;101874.00;5060872;28;20045;-61
2022/12/05 08:37:34;;;;;;;54.47;22.08;;;;;;;3.22;100.00;101878.38;5055183;28;20067;-61
2022/12/05 08:39:59;;;;;;;55.35;21.63;;;;;;;3.22;100.00;101878.38;5049940;28;20027;-61
2022/12/05 08:42:24;;;;;;;53.38;21.60;;;;;;;3.24;100.00;101878.47;5049368;28;20145;-62
2022/12/05 08:44:50;;;;;;;53.65;21.50;;;;;;;3.24;100.00;101883.63;5052243;28;20044;-62
2022/12/05 08:47:16;;;;;;;55.75;22.20;;;;;;;3.24;100.00;101878.47;5051888;28;20286;-60
2022/12/05 08:49:41;;;;;;;55.17;21.63;;;;;;;3.25;100.00;101872.56;5053255;28;20088;-61
2022/12/05 08:52:06;;;;;;;56.45;22.88;;;;;;;3.23;100.00;101879.25;5051175;28;20042;-61
2022/12/05 08:54:32;;;;;;;55.67;21.63;;;;;;;3.20;100.00;101881.63;5055954;28;20036;-61
2022/12/05 08:56:58;;;;;;;58.42;20.85;;;;;;;3.19;100.00;101882.44;5063703;28;20033;-61
2022/12/05 08:59:23;;;;;;;57.45;22.23;;;;;;;3.19;100.00;101885.00;5060667;28;20035;-61
2022/12/05 09:01:49;;;;;;;57.53;21.48;;;;;;;3.19;100.00;101888.47;5052919;28;20029;-61
2022/12/05 09:04:14;;;;;;;57.05;22.70;;;;;;;3.18;100.00;101890.94;5054774;28;20304;-61
2022/12/05 09:06:40;;;;;;;60.67;22.30;;;;;;;3.19;100.00;101883.31;5060770;28;20024;-60
2022/12/05 09:09:10;;;;;;;57.28;22.55;;;;;;;3.20;100.00;101895.41;5058381;28;20047;-61
2022/12/05 09:11:39;;;;;;;58.88;22.15;;;;;;;3.20;100.00;101892.84;5064105;28;20335;-61
2022/12/05 09:14:05;;;;;;;;;;;;;;;3.28;100.00;101899.41;5050804;28;20059;-61
2022/12/05 09:16:33;;;;;;;57.88;21.70;;;;;;;3.26;100.00;101893.25;5051965;28;20167;-61
2022/12/05 09:18:58;;;;;;;59.35;21.13;;;;;;;3.26;100.00;101900.09;5063318;28;20027;-60
2022/12/05 09:21:26;;;;;;;56.08;22.10;;;;;;;3.25;100.00;101904.34;5061063;28;20048;-61
2022/12/05 09:23:52;;;;;;;58.75;21.90;;;;;;;3.23;100.00;101911.09;5058554;28;20033;-61
2022/12/05 09:26:22;;;;;;;56.03;22.42;;;;;;;3.21;100.00;101910.06;5066157;28;20094;-61
2022/12/05 09:28:48;;;;;;;58.55;23.52;;;;;;;3.21;100.00;101907.47;5062218;28;20024;-61
2022/12/05 09:31:18;;;;;;;57.88;21.27;;;;;;;3.21;100.00;101912.63;5051199;28;20029;-61
2022/12/05 09:33:44;;;;;;;59.20;23.02;;;;;;;3.21;100.00;101904.91;5047089;28;20053;-60
2022/12/05 09:36:12;;;;;;;54.95;21.00;;;;;;;3.20;100.00;101912.53;5055166;28;20078;-61
2022/12/05 09:38:38;;;;;;;56.50;20.63;;;;;;;3.20;100.00;101921.16;5058393;28;20029;-61
2022/12/05 09:44:47;;;;;;;56.13;21.05;;;;;;;3.17;100.00;101931.22;5058163;28;20196;-61
2022/12/05 09:47:23;;;;;;;52.05;20.15;;;;;;;3.17;100.00;101930.34;5049251;28;20235;-61
2022/12/05 09:50:00;;;;;;;53.97;20.17;;;;;;;3.17;100.00;101928.66;5058141;28;20283;-61
2022/12/05 09:52:40;;;;;;;57.40;20.27;;;;;;;3.15;100.00;101930.22;5062012;28;20200;-61
2022/12/05 09:55:12;;;;;;;54.55;19.98;;;;;;;3.15;100.00;101926.78;5050034;28;20017;-61
2022/12/05 09:57:43;;;;;;;51.72;20.23;;;;;;;3.15;100.00;101927.66;5050362;28;20051;-61
2022/12/05 10:00:09;;;;;;;50.60;19.40;;;;;;;3.16;100.00;101933.69;5056909;28;20051;-61
2022/12/05 10:02:53;;;;;;;50.63;19.60;;;;;;;3.16;100.00;101932.03;5054004;28;20025;-61
2022/12/05 10:05:34;;;;;;;46.63;17.40;;;;;;;3.16;100.00;101929.47;5053885;28;20032;-60
2022/12/05 10:08:21;;;;;;;45.33;18.42;;;;;;;3.19;100.00;101932.25;5046160;28;20032;-65
2022/12/05 10:11:02;;;;;;;47.80;17.67;;;;;;;3.20;100.00;101931.47;5049893;28;20017;-65
2022/12/05 10:14:00;;;;;;;37.78;15.73;;;;;;;3.21;100.00;101927.19;5052532;28;20099;-65
2022/12/05 10:16:33;;;;;;;35.65;14.80;;;;;;;3.21;100.00;101927.19;5048656;28;20052;-65
2022/12/05 10:19:05;;;;;;;35.67;14.80;;;;;;;3.23;100.00;101923.97;5050803;28;20028;-65
2022/12/05 10:22:09;;;;;;;34.38;14.77;;;;;;;3.25;100.00;101919.78;5043391;28;20203;-65
2022/12/05 10:24:44;;;;;;;34.13;14.82;;;;;;;3.29;100.00;101920.91;5044710;28;20041;-64
2022/12/05 10:27:18;;;;;;;34.47;14.52;;;;;;;3.29;100.00;101929.53;5054330;28;20021;-65
2022/12/05 10:29:57;;;;;;;33.13;14.52;;;;;;;3.29;100.00;101926.97;5047306;28;20029;-65
2022/12/05 10:32:31;;;;;;;29.98;14.15;;;;;;;3.26;100.00;101920.72;5046606;28;20117;-65
2022/12/05 10:35:13;;;;;;;33.90;14.82;;;;;;;3.24;100.00;101927.41;5045011;28;20068;-65
2022/12/05 10:37:41;;;;;;;34.20;15.50;;;;;;;3.25;100.00;101931.78;5043870;28;20126;-65
2022/12/05 10:40:12;;;;;;;31.83;14.75;;;;;;;3.23;100.00;101926.53;5045192;28;20041;-64
2022/12/05 10:42:40;;;;;;;37.45;14.77;;;;;;;3.24;100.00;101922.25;5045102;28;20041;-64
2022/12/05 10:45:13;;;;;;;32.90;14.27;;;;;;;3.23;100.00;101935.91;5026216;28;20038;-65
2022/12/05 10:47:38;;;;;;;35.03;14.75;;;;;;;3.22;100.00;101924.75;5026119;28;20021;-65
2022/12/05 10:50:14;;;;;;;32.75;14.32;;;;;;;3.22;100.00;101929.88;5025594;28;20236;-65
2022/12/05 10:52:40;;;;;;;34.85;15.40;;;;;;;3.25;100.00;101932.69;5026437;28;20088;-65
2022/12/05 10:55:07;;;;;;;36.30;15.05;;;;;;;3.26;100.00;101931.91;5025880;28;20231;-65
2022/12/05 10:57:32;;;;;;;34.08;15.30;;;;;;;3.26;100.00;101934.47;5028449;28;20074;-65
2022/12/05 11:00:12;;;;;;;32.80;14.43;;;;;;;3.26;100.00;101937.06;5029772;28;20173;-65
2022/12/05 11:02:39;;;;;;;30.70;14.45;;;;;;;3.26;100.00;101934.47;5027325;28;20096;-65
2022/12/05 11:05:05;;;;;;;36.33;15.07;;;;;;;3.26;100.00;101931.00;5027495;28;20049;-65
2022/12/05 11:07:42;;;;;;;32.17;14.85;;;;;;;3.24;100.00;101928.31;5023707;28;20034;-65
2022/12/05 11:10:25;;;;;;;29.70;14.43;;;;;;;3.26;100.00;101923.28;5022333;28;20048;-64
2022/12/05 11:12:50;;;;;;;31.60;14.75;;;;;;;3.27;100.00;101920.81;5024914;28;20299;-65
2022/12/05 11:15:18;;;;;;;34.22;15.02;;;;;;;3.30;100.00;101918.47;5024626;28;20034;-65
2022/12/05 11:17:44;;;;;;;34.38;14.38;;;;;;;3.31;100.00;101909.03;5033629;28;20049;-65
2022/12/05 11:20:19;;;;;;;33.78;15.32;;;;;;;3.32;100.00;101908.25;5029146;28;20041;-65
2022/12/05 11:22:52;;;;;;;34.08;15.30;;;;;;;3.33;100.00;101911.72;5022799;28;20089;-65
2022/12/05 11:25:27;;;;;;;36.15;16.30;;;;;;;3.33;100.00;101909.13;5022028;28;20315;-65
2022/12/05 11:27:53;;;;;;;34.95;15.60;;;;;;;3.36;100.00;101918.00;5030727;28;20087;-65
2022/12/05 11:30:21;;;;;;;35.90;15.65;;;;;;;3.37;100.00;101914.59;5027301;28;20021;-65
2022/12/05 11:32:48;;;;;;;36.90;16.15;;;;;;;3.40;100.00;101913.94;5033863;28;20042;-65